sensor_id;sensor_type;location;lat;lon;timestamp;pressure;altitude;pressure_sealevel;temperature;humidity
7168;BME280;3625;51.762;14.320;2023-03-03T00:01:42;101345.19;;;-0.62;100.00
7168;BME280;3625;51.762;14.320;2023-03-03T00:04:11;101354.63;;;-0.64;100.00
7168;BME280;3625;51.762;14.320;2023-03-03T00:06:40;101362.50;;;-0.62;100.00
7168;BME280;3625;51.762;14.320;2023-03-03T00:09:09;101358.06;;;-0.65;100.00
7168;BME280;3625;51.762;14.320;2023-03-03T00:11:37;101358.06;;;-0.65;100.00
7168;BME280;3625;51.762;14.320;2023-03-03T00:14:20;101352.97;;;-0.84;100.00
7168;BME280;3625;51.762;14.320;2023-03-03T00:16:51;101355.59;;;-0.84;100.00
7168;BME280;3625;51.762;14.320;2023-03-03T00:19:20;101368.75;;;-0.80;100.00
7168;BME280;3625;51.762;14.320;2023-03-03T00:21:51;101357.97;;;-0.90;100.00
7168;BME280;3625;51.762;14.320;2023-03-03T00:24:22;101357.06;;;-0.91;100.00
7168;BME280;3625;51.762;14.320;2023-03-03T00:26:53;101358.03;;;-0.89;100.00
7168;BME280;3625;51.762;14.320;2023-03-03T00:29:33;101362.94;;;-0.95;100.00
7168;BME280;3625;51.762;14.320;2023-03-03T00:32:24;101356.13;;;-0.93;100.00
7168;BME280;3625;51.762;14.320;2023-03-03T00:35:00;101323.09;;;-0.97;100.00
7168;BME280;3625;51.762;14.320;2023-03-03T00:37:32;101346.50;;;-0.73;100.00
7168;BME280;3625;51.762;14.320;2023-03-03T00:40:21;101282.63;;;-1.14;100.00
7168;BME280;3625;51.762;14.320;2023-03-03T00:42:53;101348.34;;;-0.69;100.00
7168;BME280;3625;51.762;14.320;2023-03-03T00:45:30;101345.13;;;-0.63;100.00
7168;BME280;3625;51.762;14.320;2023-03-03T00:48:20;101278.81;;;-1.00;100.00
7168;BME280;3625;51.762;14.320;2023-03-03T00:50:50;101349.50;;;-0.62;100.00
7168;BME280;3625;51.762;14.320;2023-03-03T00:53:20;101363.38;;;-0.62;100.00
7168;BME280;3625;51.762;14.320;2023-03-03T00:55:51;101351.13;;;-0.88;100.00
7168;BME280;3625;51.762;14.320;2023-03-03T00:58:22;101369.16;;;-0.91;100.00
7168;BME280;3625;51.762;14.320;2023-03-03T01:00:53;101364.38;;;-0.81;100.00
7168;BME280;3625;51.762;14.320;2023-03-03T01:03:30;101354.09;;;-0.78;100.00
7168;BME280;3625;51.762;14.320;2023-03-03T01:06:00;101359.63;;;-0.68;100.00
7168;BME280;3625;51.762;14.320;2023-03-03T01:08:28;101354.44;;;-0.68;100.00
7168;BME280;3625;51.762;14.320;2023-03-03T01:11:03;101309.28;;;-0.96;100.00
7168;BME280;3625;51.762;14.320;2023-03-03T01:13:36;101344.16;;;-0.65;100.00
7168;BME280;3625;51.762;14.320;2023-03-03T01:16:07;101258.44;;;-1.11;100.00
7168;BME280;3625;51.762;14.320;2023-03-03T01:18:38;101339.31;;;-0.80;100.00
7168;BME280;3625;51.762;14.320;2023-03-03T01:21:08;101332.34;;;-0.81;100.00
7168;BME280;3625;51.762;14.320;2023-03-03T01:23:38;101344.56;;;-0.79;100.00
7168;BME280;3625;51.762;14.320;2023-03-03T01:26:07;101340.28;;;-0.77;100.00
7168;BME280;3625;51.762;14.320;2023-03-03T01:28:39;101353.28;;;-0.77;100.00
7168;BME280;3625;51.762;14.320;2023-03-03T01:31:08;101364.91;;;-0.67;100.00
7168;BME280;3625;51.762;14.320;2023-03-03T01:33:38;101354.03;;;-0.57;100.00
7168;BME280;3625;51.762;14.320;2023-03-03T01:36:07;101345.66;;;-0.94;100.00
7168;BME280;3625;51.762;14.320;2023-03-03T01:38:36;101349.41;;;-0.88;100.00
7168;BME280;3625;51.762;14.320;2023-03-03T01:41:05;101339.31;;;-0.80;100.00
7168;BME280;3625;51.762;14.320;2023-03-03T01:43:41;101336.97;;;-0.72;100.00
7168;BME280;3625;51.762;14.320;2023-03-03T01:46:45;101316.34;;;-0.92;100.00
7168;BME280;3625;51.762;14.320;2023-03-03T01:49:21;101256.00;;;-1.31;100.00
7168;BME280;3625;51.762;14.320;2023-03-03T01:51:56;101339.25;;;-0.82;100.00
7168;BME280;3625;51.762;14.320;2023-03-03T01:54:30;101275.50;;;-0.96;100.00
7168;BME280;3625;51.762;14.320;2023-03-03T01:57:06;101330.41;;;-0.63;100.00
7168;BME280;3625;51.762;14.320;2023-03-03T01:59:43;101329.88;;;-0.54;100.00
7168;BME280;3625;51.762;14.320;2023-03-03T02:02:15;101331.41;;;-0.59;100.00
7168;BME280;3625;51.762;14.320;2023-03-03T02:04:45;101323.88;;;-0.76;100.00
7168;BME280;3625;51.762;14.320;2023-03-03T02:07:15;101340.81;;;-0.63;100.00
7168;BME280;3625;51.762;14.320;2023-03-03T02:09:54;101343.13;;;-0.70;100.00
7168;BME280;3625;51.762;14.320;2023-03-03T02:12:32;101304.19;;;-0.93;100.00
7168;BME280;3625;51.762;14.320;2023-03-03T02:15:07;101327.56;;;-0.69;100.00
7168;BME280;3625;51.762;14.320;2023-03-03T02:17:39;101312.44;;;-0.81;100.00
7168;BME280;3625;51.762;14.320;2023-03-03T02:20:16;101309.84;;;-0.81;100.00
7168;BME280;3625;51.762;14.320;2023-03-03T02:22:54;101273.97;;;-0.91;100.00
7168;BME280;3625;51.762;14.320;2023-03-03T02:25:33;101304.38;;;-0.64;100.00
7168;BME280;3625;51.762;14.320;2023-03-03T02:28:06;101317.09;;;-0.72;100.00
7168;BME280;3625;51.762;14.320;2023-03-03T02:30:38;101311.97;;;-0.70;100.00
7168;BME280;3625;51.762;14.320;2023-03-03T02:33:08;101317.44;;;-0.85;100.00
7168;BME280;3625;51.762;14.320;2023-03-03T02:35:39;101325.44;;;-0.81;100.00
7168;BME280;3625;51.762;14.320;2023-03-03T02:38:19;101326.03;;;-0.88;100.00
7168;BME280;3625;51.762;14.320;2023-03-03T02:40:59;101334.81;;;-0.84;100.00
7168;BME280;3625;51.762;14.320;2023-03-03T02:43:57;101319.25;;;-1.06;100.00
7168;BME280;3625;51.762;14.320;2023-03-03T02:46:28;101325.75;;;-0.95;100.00
7168;BME280;3625;51.762;14.320;2023-03-03T02:48:57;101316.41;;;-0.90;100.00
7168;BME280;3625;51.762;14.320;2023-03-03T02:51:25;101320.31;;;-0.78;100.00
7168;BME280;3625;51.762;14.320;2023-03-03T02:53:54;101283.41;;;-0.93;100.00
7168;BME280;3625;51.762;14.320;2023-03-03T02:56:24;101315.72;;;-0.62;100.00
7168;BME280;3625;51.762;14.320;2023-03-03T02:58:55;101310.25;;;-0.70;100.00
7168;BME280;3625;51.762;14.320;2023-03-03T03:01:24;101314.31;;;-0.77;100.00
7168;BME280;3625;51.762;14.320;2023-03-03T03:03:54;101308.06;;;-0.82;100.00
7168;BME280;3625;51.762;14.320;2023-03-03T03:06:23;101308.75;;;-0.86;100.00
7168;BME280;3625;51.762;14.320;2023-03-03T03:08:52;101316.81;;;-0.80;100.00
7168;BME280;3625;51.762;14.320;2023-03-03T03:11:22;101317.03;;;-0.73;100.00
7168;BME280;3625;51.762;14.320;2023-03-03T03:13:51;101329.63;;;-0.60;100.00
7168;BME280;3625;51.762;14.320;2023-03-03T03:16:21;101330.22;;;-0.67;100.00
7168;BME280;3625;51.762;14.320;2023-03-03T03:18:51;101339.03;;;-0.64;100.00
7168;BME280;3625;51.762;14.320;2023-03-03T03:21:20;101343.00;;;-0.73;100.00
7168;BME280;3625;51.762;14.320;2023-03-03T03:23:49;101345.09;;;-0.87;100.00
7168;BME280;3625;51.762;14.320;2023-03-03T03:26:18;101348.81;;;-0.81;100.00
7168;BME280;3625;51.762;14.320;2023-03-03T03:28:50;101355.94;;;-0.75;100.00
7168;BME280;3625;51.762;14.320;2023-03-03T03:31:21;101350.03;;;-0.93;100.00
7168;BME280;3625;51.762;14.320;2023-03-03T03:33:51;101351.19;;;-0.87;100.00
7168;BME280;3625;51.762;14.320;2023-03-03T03:36:21;101346.47;;;-0.97;100.00
7168;BME280;3625;51.762;14.320;2023-03-03T03:38:51;101350.03;;;-0.93;100.00
7168;BME280;3625;51.762;14.320;2023-03-03T03:41:19;101348.25;;;-0.94;100.00
7168;BME280;3625;51.762;14.320;2023-03-03T03:43:48;101343.53;;;-0.82;100.00
7168;BME280;3625;51.762;14.320;2023-03-03T03:46:18;101342.66;;;-0.83;100.00
7168;BME280;3625;51.762;14.320;2023-03-03T03:48:48;101351.81;;;-0.92;100.00
7168;BME280;3625;51.762;14.320;2023-03-03T03:54:10;101352.88;;;-0.87;100.00
7168;BME280;3625;51.762;14.320;2023-03-03T03:56:40;101314.59;;;-1.15;100.00
7168;BME280;3625;51.762;14.320;2023-03-03T03:59:11;101365.63;;;-0.93;100.00
7168;BME280;3625;51.762;14.320;2023-03-03T04:01:40;101363.22;;;-0.89;100.00
7168;BME280;3625;51.762;14.320;2023-03-03T04:04:11;101366.50;;;-0.93;100.00
7168;BME280;3625;51.762;14.320;2023-03-03T04:06:40;101371.06;;;-0.87;100.00
7168;BME280;3625;51.762;14.320;2023-03-03T04:09:11;101373.59;;;-0.89;100.00
7168;BME280;3625;51.762;14.320;2023-03-03T04:11:40;101374.50;;;-0.88;100.00
7168;BME280;3625;51.762;14.320;2023-03-03T04:14:10;101380.50;;;-0.89;100.00
7168;BME280;3625;51.762;14.320;2023-03-03T04:16:39;101376.56;;;-0.80;100.00
7168;BME280;3625;51.762;14.320;2023-03-03T04:19:10;101370.94;;;-0.90;100.00
7168;BME280;3625;51.762;14.320;2023-03-03T04:21:42;101373.59;;;-0.89;100.00
7168;BME280;3625;51.762;14.320;2023-03-03T04:24:11;101368.88;;;-0.99;100.00
7168;BME280;3625;51.762;14.320;2023-03-03T04:26:40;101378.38;;;-0.99;100.00
7168;BME280;3625;51.762;14.320;2023-03-03T04:29:13;101378.31;;;-1.01;100.00
7168;BME280;3625;51.762;14.320;2023-03-03T04:31:43;101382.09;;;-0.93;100.00
7168;BME280;3625;51.762;14.320;2023-03-03T04:34:14;101378.78;;;-0.89;100.00
7168;BME280;3625;51.762;14.320;2023-03-03T04:36:44;101379.63;;;-0.90;100.00
7168;BME280;3625;51.762;14.320;2023-03-03T04:39:13;101378.53;;;-0.95;100.00
7168;BME280;3625;51.762;14.320;2023-03-03T04:41:41;101362.78;;;-0.99;100.00
7168;BME280;3625;51.762;14.320;2023-03-03T04:44:10;101361.31;;;-0.93;100.00
7168;BME280;3625;51.762;14.320;2023-03-03T04:46:39;101358.03;;;-0.89;100.00
7168;BME280;3625;51.762;14.320;2023-03-03T04:49:08;101365.75;;;-0.90;100.00
7168;BME280;3625;51.762;14.320;2023-03-03T04:51:41;101367.63;;;-0.86;100.00
7168;BME280;3625;51.762;14.320;2023-03-03T04:54:11;101355.13;;;-0.96;100.00
7168;BME280;3625;51.762;14.320;2023-03-03T04:56:40;101357.72;;;-0.96;100.00
7168;BME280;3625;51.762;14.320;2023-03-03T04:59:09;101362.94;;;-0.95;100.00
7168;BME280;3625;51.762;14.320;2023-03-03T05:01:37;101369.81;;;-0.97;100.00
7168;BME280;3625;51.762;14.320;2023-03-03T05:04:07;101356.91;;;-0.95;100.00
7168;BME280;3625;51.762;14.320;2023-03-03T05:06:37;101335.25;;;-0.96;100.00
7168;BME280;3625;51.762;14.320;2023-03-03T05:09:07;101338.53;;;-1.00;100.00
7168;BME280;3625;51.762;14.320;2023-03-03T05:11:36;101327.44;;;-0.96;100.00
7168;BME280;3625;51.762;14.320;2023-03-03T05:14:05;101323.38;;;-0.89;100.00
7168;BME280;3625;51.762;14.320;2023-03-03T05:16:40;101320.72;;;-0.91;100.00
7168;BME280;3625;51.762;14.320;2023-03-03T05:19:09;101311.97;;;-0.93;100.00
7168;BME280;3625;51.762;14.320;2023-03-03T05:21:38;101310.38;;;-0.89;100.00
7168;BME280;3625;51.762;14.320;2023-03-03T05:24:11;101322.00;;;-0.80;100.00
7168;BME280;3625;51.762;14.320;2023-03-03T05:26:40;101318.59;;;-0.79;100.00
7168;BME280;3625;51.762;14.320;2023-03-03T05:29:09;101270.75;;;-1.07;100.00
7168;BME280;3625;51.762;14.320;2023-03-03T05:31:38;101324.97;;;-0.69;100.00
7168;BME280;3625;51.762;14.320;2023-03-03T05:34:06;101335.34;;;-0.70;100.00
7168;BME280;3625;51.762;14.320;2023-03-03T05:36:35;101341.50;;;-0.67;100.00
7168;BME280;3625;51.762;14.320;2023-03-03T05:39:06;101346.72;;;-0.67;100.00
7168;BME280;3625;51.762;14.320;2023-03-03T05:41:39;101354.03;;;-0.57;100.00
7168;BME280;3625;51.762;14.320;2023-03-03T05:44:11;101358.41;;;-0.56;100.00
7168;BME280;3625;51.762;14.320;2023-03-03T05:46:40;101357.09;;;-0.67;100.00
7168;BME280;3625;51.762;14.320;2023-03-03T05:49:09;101359.25;;;-0.79;100.00
7168;BME280;3625;51.762;14.320;2023-03-03T05:51:38;101364.53;;;-0.76;100.00
7168;BME280;3625;51.762;14.320;2023-03-03T05:54:06;101354.06;;;-0.79;100.00
7168;BME280;3625;51.762;14.320;2023-03-03T05:56:39;101349.44;;;-0.86;100.00
7168;BME280;3625;51.762;14.320;2023-03-03T05:59:07;101358.13;;;-0.86;100.00
7168;BME280;3625;51.762;14.320;2023-03-03T06:01:36;101365.28;;;-0.80;100.00
7168;BME280;3625;51.762;14.320;2023-03-03T06:04:05;101364.53;;;-0.76;100.00
7168;BME280;3625;51.762;14.320;2023-03-03T06:06:34;101363.84;;;-0.72;100.00
7168;BME280;3625;51.762;14.320;2023-03-03T06:09:05;101368.91;;;-0.75;100.00
7168;BME280;3625;51.762;14.320;2023-03-03T06:11:34;101375.06;;;-0.73;100.00
7168;BME280;3625;51.762;14.320;2023-03-03T06:14:05;101375.97;;;-0.72;100.00
7168;BME280;3625;51.762;14.320;2023-03-03T06:16:34;101376.13;;;-0.68;100.00
7168;BME280;3625;51.762;14.320;2023-03-03T06:19:02;101377.81;;;-0.68;100.00
7168;BME280;3625;51.762;14.320;2023-03-03T06:21:33;101375.28;;;-0.67;100.00
7168;BME280;3625;51.762;14.320;2023-03-03T06:24:02;101370.91;;;-0.68;100.00
7168;BME280;3625;51.762;14.320;2023-03-03T06:26:31;101378.06;;;-0.62;100.00
7168;BME280;3625;51.762;14.320;2023-03-03T06:29:00;101380.28;;;-0.49;100.00
7168;BME280;3625;51.762;14.320;2023-03-03T06:31:31;101385.41;;;-0.52;100.00
7168;BME280;3625;51.762;14.320;2023-03-03T06:34:01;101389.03;;;-0.47;100.00
7168;BME280;3625;51.762;14.320;2023-03-03T06:36:30;101391.78;;;-0.43;100.00
7168;BME280;3625;51.762;14.320;2023-03-03T06:39:01;101401.28;;;-0.43;100.00
7168;BME280;3625;51.762;14.320;2023-03-03T06:41:39;101396.00;;;-0.46;100.00
7168;BME280;3625;51.762;14.320;2023-03-03T06:44:08;101394.22;;;-0.47;100.00
7168;BME280;3625;51.762;14.320;2023-03-03T06:46:41;101397.72;;;-0.47;100.00
7168;BME280;3625;51.762;14.320;2023-03-03T06:49:15;101398.88;;;-0.39;100.00
7168;BME280;3625;51.762;14.320;2023-03-03T06:51:44;101387.81;;;-0.33;100.00
7168;BME280;3625;51.762;14.320;2023-03-03T06:54:15;101255.44;;;-1.00;100.00
7168;BME280;3625;51.762;14.320;2023-03-03T06:56:48;101368.91;;;-0.29;100.00
7168;BME280;3625;51.762;14.320;2023-03-03T06:59:21;101373.44;;;-0.23;100.00
7168;BME280;3625;51.762;14.320;2023-03-03T07:01:51;101392.25;;;-0.07;100.00
7168;BME280;3625;51.762;14.320;2023-03-03T07:04:28;101395.78;;;-0.05;100.00
7168;BME280;3625;51.762;14.320;2023-03-03T07:07:00;101393.63;;;0.08;100.00
7168;BME280;3625;51.762;14.320;2023-03-03T07:09:33;101393.97;;;0.17;100.00
7168;BME280;3625;51.762;14.320;2023-03-03T07:12:11;101398.28;;;0.18;100.00
7168;BME280;3625;51.762;14.320;2023-03-03T07:14:43;101400.00;;;0.16;100.00
7168;BME280;3625;51.762;14.320;2023-03-03T07:17:17;101278.72;;;-0.55;100.00
7168;BME280;3625;51.762;14.320;2023-03-03T07:19:47;101397.59;;;0.22;100.00
7168;BME280;3625;51.762;14.320;2023-03-03T07:22:19;101381.84;;;0.17;100.00
7168;BME280;3625;51.762;14.320;2023-03-03T07:24:51;101413.00;;;0.41;100.00
7168;BME280;3625;51.762;14.320;2023-03-03T07:27:24;101382.50;;;0.37;100.00
7168;BME280;3625;51.762;14.320;2023-03-03T07:30:24;101422.56;;;0.67;100.00
7168;BME280;3625;51.762;14.320;2023-03-03T07:32:55;101427.84;;;0.70;100.00
7168;BME280;3625;51.762;14.320;2023-03-03T07:35:46;101412.88;;;0.63;100.00
7168;BME280;3625;51.762;14.320;2023-03-03T07:38:29;101440.84;;;0.69;100.00
7168;BME280;3625;51.762;14.320;2023-03-03T07:41:01;101415.13;;;0.53;100.00
7168;BME280;3625;51.762;14.320;2023-03-03T07:43:35;101434.84;;;0.71;100.00
7168;BME280;3625;51.762;14.320;2023-03-03T07:46:27;101384.56;;;0.47;100.00
7168;BME280;3625;51.762;14.320;2023-03-03T07:48:59;101455.31;;;0.86;100.00
7168;BME280;3625;51.762;14.320;2023-03-03T07:51:36;101464.00;;;0.87;100.00
7168;BME280;3625;51.762;14.320;2023-03-03T07:54:26;101402.47;;;0.38;100.00
7168;BME280;3625;51.762;14.320;2023-03-03T07:56:58;101459.94;;;0.69;100.00
7168;BME280;3625;51.762;14.320;2023-03-03T07:59:30;101455.47;;;0.65;100.00
7168;BME280;3625;51.762;14.320;2023-03-03T08:02:05;101430.13;;;0.60;100.00
7168;BME280;3625;51.762;14.320;2023-03-03T08:04:47;101407.06;;;0.45;100.00
7168;BME280;3625;51.762;14.320;2023-03-03T08:07:20;101335.38;;;0.29;100.00
7168;BME280;3625;51.762;14.320;2023-03-03T08:09:55;101443.44;;;0.94;100.00
7168;BME280;3625;51.762;14.320;2023-03-03T08:12:37;101444.59;;;1.04;100.00
7168;BME280;3625;51.762;14.320;2023-03-03T08:15:21;101357.97;;;0.56;100.00
7168;BME280;3625;51.762;14.320;2023-03-03T08:17:53;101404.91;;;0.84;100.00
7168;BME280;3625;51.762;14.320;2023-03-03T08:20:45;101453.56;;;1.12;100.00
7168;BME280;3625;51.762;14.320;2023-03-03T08:23:16;101296.41;;;0.31;100.00
7168;BME280;3625;51.762;14.320;2023-03-03T08:25:46;101439.81;;;1.18;100.00
7168;BME280;3625;51.762;14.320;2023-03-03T08:28:15;101437.28;;;1.19;100.00
7168;BME280;3625;51.762;14.320;2023-03-03T08:30:44;101430.53;;;1.26;100.00
7168;BME280;3625;51.762;14.320;2023-03-03T08:33:13;101443.13;;;1.40;100.00
7168;BME280;3625;51.762;14.320;2023-03-03T08:35:44;101442.56;;;1.50;100.00
7168;BME280;3625;51.762;14.320;2023-03-03T08:38:17;101337.28;;;0.89;100.00
7168;BME280;3625;51.762;14.320;2023-03-03T08:40:46;101456.44;;;1.49;100.00
7168;BME280;3625;51.762;14.320;2023-03-03T08:43:16;101452.06;;;1.47;100.00
7168;BME280;3625;51.762;14.320;2023-03-03T08:45:50;101255.78;;;0.34;100.00
7168;BME280;3625;51.762;14.320;2023-03-03T08:48:20;101412.00;;;1.17;100.00
7168;BME280;3625;51.762;14.320;2023-03-03T08:50:50;101452.59;;;1.37;100.00
7168;BME280;3625;51.762;14.320;2023-03-03T08:53:20;101455.38;;;1.43;100.00
7168;BME280;3625;51.762;14.320;2023-03-03T08:55:49;101454.28;;;1.35;100.00
7168;BME280;3625;51.762;14.320;2023-03-03T08:58:19;101445.94;;;1.46;100.00
7168;BME280;3625;51.762;14.320;2023-03-03T09:01:00;101443.06;;;1.67;100.00
7168;BME280;3625;51.762;14.320;2023-03-03T09:03:29;101441.72;;;1.80;100.00
7168;BME280;3625;51.762;14.320;2023-03-03T09:05:59;101437.41;;;1.82;100.00
7168;BME280;3625;51.762;14.320;2023-03-03T09:08:28;101443.41;;;1.78;100.00
7168;BME280;3625;51.762;14.320;2023-03-03T09:10:57;101448.66;;;1.79;100.00
7168;BME280;3625;51.762;14.320;2023-03-03T09:13:29;101460.22;;;1.87;100.00
7168;BME280;3625;51.762;14.320;2023-03-03T09:15:58;101458.34;;;1.83;100.00
7168;BME280;3625;51.762;14.320;2023-03-03T09:18:34;101452.84;;;1.73;100.00
7168;BME280;3625;51.762;14.320;2023-03-03T09:21:20;101458.13;;;1.76;100.00
7168;BME280;3625;51.762;14.320;2023-03-03T09:23:54;101470.31;;;1.77;100.00
7168;BME280;3625;51.762;14.320;2023-03-03T09:26:27;101469.84;;;1.90;100.00
7168;BME280;3625;51.762;14.320;2023-03-03T09:29:22;101477.91;;;1.98;100.00
7168;BME280;3625;51.762;14.320;2023-03-03T09:31:53;101473.56;;;1.98;100.00
7168;BME280;3625;51.762;14.320;2023-03-03T09:34:25;101477.06;;;1.99;100.00
7168;BME280;3625;51.762;14.320;2023-03-03T09:36:56;101477.44;;;2.12;100.00
7168;BME280;3625;51.762;14.320;2023-03-03T09:39:29;101480.44;;;2.26;100.00
7168;BME280;3625;51.762;14.320;2023-03-03T09:42:44;101478.66;;;2.25;100.00
7168;BME280;3625;51.762;14.320;2023-03-03T09:45:50;101293.84;;;1.16;100.00
7168;BME280;3625;51.762;14.320;2023-03-03T09:48:46;101484.66;;;2.21;100.00
7168;BME280;3625;51.762;14.320;2023-03-03T09:51:50;101419.78;;;1.73;100.00
7168;BME280;3625;51.762;14.320;2023-03-03T09:54:42;101355.47;;;1.44;100.00
7168;BME280;3625;51.762;14.320;2023-03-03T09:57:20;101484.84;;;2.28;100.00
7168;BME280;3625;51.762;14.320;2023-03-03T10:00:30;101484.78;;;1.96;100.00
7168;BME280;3625;51.762;14.320;2023-03-03T10:03:44;101452.69;;;1.68;100.00
7168;BME280;3625;51.762;14.320;2023-03-03T10:06:26;101442.63;;;1.80;100.00
7168;BME280;3625;51.762;14.320;2023-03-03T10:09:20;101485.44;;;2.18;100.00
7168;BME280;3625;51.762;14.320;2023-03-03T10:12:09;101482.81;;;2.18;100.00
7168;BME280;3625;51.762;14.320;2023-03-03T10:15:16;101490.34;;;2.06;100.00
7168;BME280;3625;51.762;14.320;2023-03-03T10:17:51;101460.78;;;1.77;100.00
7168;BME280;3625;51.762;14.320;2023-03-03T10:20:37;101496.16;;;1.98;100.00
7168;BME280;3625;51.762;14.320;2023-03-03T10:23:37;101475.81;;;1.86;100.00
7168;BME280;3625;51.762;14.320;2023-03-03T10:26:22;101451.44;;;1.85;100.00
7168;BME280;3625;51.762;14.320;2023-03-03T10:29:25;101491.72;;;2.25;100.00
7168;BME280;3625;51.762;14.320;2023-03-03T10:32:30;101373.81;;;1.77;100.00
7168;BME280;3625;51.762;14.320;2023-03-03T10:35:22;101488.44;;;2.63;100.00
7168;BME280;3625;51.762;14.320;2023-03-03T10:38:36;101490.09;;;2.61;100.00
7168;BME280;3625;51.762;14.320;2023-03-03T10:41:44;101492.06;;;2.70;100.00
7168;BME280;3625;51.762;14.320;2023-03-03T10:44:52;101489.56;;;2.73;100.00
7168;BME280;3625;51.762;14.320;2023-03-03T10:50:59;101473.59;;;2.97;100.00
7168;BME280;3625;51.762;14.320;2023-03-03T10:53:40;101477.66;;;3.19;100.00
7168;BME280;3625;51.762;14.320;2023-03-03T10:56:28;101450.63;;;3.18;100.00
7168;BME280;3625;51.762;14.320;2023-03-03T10:59:46;101446.66;;;2.99;100.00
7168;BME280;3625;51.762;14.320;2023-03-03T11:02:27;101475.38;;;2.98;100.00
7168;BME280;3625;51.762;14.320;2023-03-03T11:05:32;101482.94;;;2.87;100.00
7168;BME280;3625;51.762;14.320;2023-03-03T11:08:10;101473.41;;;2.89;100.00
7168;BME280;3625;51.762;14.320;2023-03-03T11:10:52;101473.56;;;2.94;100.00
7168;BME280;3625;51.762;14.320;2023-03-03T11:13:37;101442.84;;;2.85;100.00
7168;BME280;3625;51.762;14.320;2023-03-03T11:16:28;101463.94;;;2.94;100.00
7168;BME280;3625;51.762;14.320;2023-03-03T11:19:17;101456.28;;;3.00;100.00
7168;BME280;3625;51.762;14.320;2023-03-03T11:22:03;101452.91;;;3.42;100.00
7168;BME280;3625;51.762;14.320;2023-03-03T11:24:56;101449.22;;;3.71;100.00
7168;BME280;3625;51.762;14.320;2023-03-03T11:28:04;101450.75;;;3.63;100.00
7168;BME280;3625;51.762;14.320;2023-03-03T11:30:57;101450.38;;;3.47;100.00
7168;BME280;3625;51.762;14.320;2023-03-03T11:33:39;101415.47;;;3.07;100.00
7168;BME280;3625;51.762;14.320;2023-03-03T11:36:17;101459.78;;;3.37;100.00
7168;BME280;3625;51.762;14.320;2023-03-03T11:38:55;101361.56;;;3.11;100.00
7168;BME280;3625;51.762;14.320;2023-03-03T11:41:35;101412.75;;;3.40;100.00
7168;BME280;3625;51.762;14.320;2023-03-03T11:44:17;101455.88;;;3.59;100.00
7168;BME280;3625;51.762;14.320;2023-03-03T11:46:52;101449.50;;;3.46;100.00
7168;BME280;3625;51.762;14.320;2023-03-03T11:49:32;101450.59;;;3.56;100.00
7168;BME280;3625;51.762;14.320;2023-03-03T11:52:20;101447.88;;;3.51;100.00
7168;BME280;3625;51.762;14.320;2023-03-03T11:54:56;101390.56;;;3.23;100.00
7168;BME280;3625;51.762;14.320;2023-03-03T11:57:35;101445.09;;;3.44;100.00
7168;BME280;3625;51.762;14.320;2023-03-03T12:00:24;101400.97;;;3.20;100.00
7168;BME280;3625;51.762;14.320;2023-03-03T12:03:20;101436.44;;;3.48;100.00
7168;BME280;3625;51.762;14.320;2023-03-03T12:06:06;101349.16;;;3.03;100.00
7168;BME280;3625;51.762;14.320;2023-03-03T12:09:00;101355.59;;;3.18;100.00
7168;BME280;3625;51.762;14.320;2023-03-03T12:11:40;101427.34;;;3.69;100.00
7168;BME280;3625;51.762;14.320;2023-03-03T12:14:42;101429.72;;;3.59;100.00
7168;BME280;3625;51.762;14.320;2023-03-03T12:17:36;101427.19;;;3.63;100.00
7168;BME280;3625;51.762;14.320;2023-03-03T12:20:17;101427.03;;;3.56;100.00
7168;BME280;3625;51.762;14.320;2023-03-03T12:23:12;101416.53;;;3.53;100.00
7168;BME280;3625;51.762;14.320;2023-03-03T12:25:53;101408.34;;;3.39;100.00
7168;BME280;3625;51.762;14.320;2023-03-03T12:28:29;101399.56;;;3.35;100.00
7168;BME280;3625;51.762;14.320;2023-03-03T12:31:18;101394.38;;;3.37;100.00
7168;BME280;3625;51.762;14.320;2023-03-03T12:33:54;101380.22;;;3.29;100.00
7168;BME280;3625;51.762;14.320;2023-03-03T12:36:59;101348.94;;;2.94;100.00
7168;BME280;3625;51.762;14.320;2023-03-03T12:39:44;101415.94;;;3.27;100.00
7168;BME280;3625;51.762;14.320;2023-03-03T12:42:32;101420.66;;;3.06;100.00
7168;BME280;3625;51.762;14.320;2023-03-03T12:45:13;101418.53;;;2.89;100.00
7168;BME280;3625;51.762;14.320;2023-03-03T12:47:50;101411.50;;;2.85;100.00
7168;BME280;3625;51.762;14.320;2023-03-03T12:50:33;101415.84;;;2.86;100.00
7168;BME280;3625;51.762;14.320;2023-03-03T12:53:20;101375.56;;;2.78;100.00
7168;BME280;3625;51.762;14.320;2023-03-03T12:56:00;101415.38;;;3.02;100.00
7168;BME280;3625;51.762;14.320;2023-03-03T12:58:43;101416.59;;;3.17;100.00
7168;BME280;3625;51.762;14.320;2023-03-03T13:01:34;101411.59;;;3.27;100.00
7168;BME280;3625;51.762;14.320;2023-03-03T13:04:11;101336.97;;;3.02;100.00
7168;BME280;3625;51.762;14.320;2023-03-03T13:06:57;101402.47;;;3.49;100.00
7168;BME280;3625;51.762;14.320;2023-03-03T13:09:42;101347.72;;;3.16;100.00
7168;BME280;3625;51.762;14.320;2023-03-03T13:12:38;101376.13;;;3.40;100.00
7168;BME280;3625;51.762;14.320;2023-03-03T13:15:22;101390.31;;;3.51;100.00
7168;BME280;3625;51.762;14.320;2023-03-03T13:18:18;101218.59;;;2.68;100.00
7168;BME280;3625;51.762;14.320;2023-03-03T13:20:59;101381.78;;;3.60;100.00
7168;BME280;3625;51.762;14.320;2023-03-03T13:23:47;101389.81;;;3.69;100.00
7168;BME280;3625;51.762;14.320;2023-03-03T13:26:25;101376.59;;;3.61;100.00
7168;BME280;3625;51.762;14.320;2023-03-03T13:29:10;101297.72;;;3.01;100.00
7168;BME280;3625;51.762;14.320;2023-03-03T13:31:48;101355.13;;;3.35;100.00
7168;BME280;3625;51.762;14.320;2023-03-03T13:34:32;101375.91;;;3.31;100.00
7168;BME280;3625;51.762;14.320;2023-03-03T13:37:12;101385.53;;;3.32;100.00
7168;BME280;3625;51.762;14.320;2023-03-03T13:39:55;101350.63;;;2.91;100.00
7168;BME280;3625;51.762;14.320;2023-03-03T13:42:36;101330.28;;;2.76;100.00
7168;BME280;3625;51.762;14.320;2023-03-03T13:45:17;101376.28;;;3.07;100.00
7168;BME280;3625;51.762;14.320;2023-03-03T13:48:02;101314.38;;;2.69;100.00
7168;BME280;3625;51.762;14.320;2023-03-03T13:50:44;101273.78;;;2.45;100.00
7168;BME280;3625;51.762;14.320;2023-03-03T13:53:39;101242.25;;;2.36;100.00